Time;durP1;ratioP1;P1;durP2;ratioP2;P2;SDS_P1;SDS_P2;PMS_P1;PMS_P2;Temp;Humidity;BMP_temperature;BMP_pressure;BME280_temperature;BME280_humidity;BME280_pressure;Samples;Min_cycle;Max_cycle;Signal;HPM_P1;HPM_P2
2022/03/05 00:00:08;;;;;;;8.27;5.30;;;5.30;55.40;;;8.23;44.65;102343.72;5034349;28;20608;-51
2022/03/05 00:02:37;;;;;;;6.27;4.73;;;5.30;55.40;;;8.22;44.72;102355.16;5034527;28;20206;-55
2022/03/05 00:05:05;;;;;;;6.27;5.07;;;5.20;55.60;;;8.21;45.19;102343.84;5036961;28;20218;-52
2022/03/05 00:07:33;;;;;;;7.17;5.03;;;5.30;56.30;;;8.19;45.26;102346.59;5033367;28;20531;-52
2022/03/05 00:10:00;;;;;;;6.97;5.63;;;5.30;56.50;;;8.19;45.32;102348.38;5034325;28;20544;-50
2022/03/05 00:12:27;;;;;;;6.93;5.47;;;5.30;56.30;;;8.18;45.32;102344.91;5033802;28;20222;-56
2022/03/05 00:14:56;;;;;;;7.03;4.80;;;5.30;56.10;;;8.20;45.18;102343.00;5034230;28;20219;-54
2022/03/05 00:17:23;;;;;;;7.17;5.13;;;5.30;56.00;;;8.18;45.48;102342.28;5034385;28;20548;-53
2022/03/05 00:19:51;;;;;;;8.47;6.00;;;5.30;56.50;;;8.18;45.83;102339.66;5034530;28;20188;-54
2022/03/05 00:22:18;;;;;;;10.30;5.63;;;5.20;56.60;;;8.18;45.61;102339.66;5033840;28;20266;-52
2022/03/05 00:24:45;;;;;;;7.33;5.50;;;5.30;56.50;;;8.17;45.69;102340.63;5033749;28;20242;-55
2022/03/05 00:27:13;;;;;;;8.07;5.73;;;5.30;56.50;;;8.17;45.57;102338.00;5034237;28;20553;-52
2022/03/05 00:29:40;;;;;;;7.87;5.40;;;5.30;56.50;;;8.19;45.38;102338.72;5034187;28;20242;-58
2022/03/05 00:32:09;;;;;;;7.77;5.13;;;5.30;56.40;;;8.20;45.56;102343.00;5033841;28;20198;-53
2022/03/05 00:34:37;;;;;;;9.60;5.80;;;5.30;56.60;;;8.21;46.08;102343.84;5033669;28;20281;-52
2022/03/05 00:37:05;;;;;;;6.73;5.17;;;5.30;56.90;;;8.24;45.91;102342.78;5034074;28;20590;-53
2022/03/05 00:39:32;;;;;;;6.73;5.30;;;5.40;57.00;;;8.26;45.62;102341.72;5033993;28;20192;-50
2022/03/05 00:42:00;;;;;;;8.87;5.40;;;5.40;56.60;;;8.26;45.85;102341.72;5033830;28;20190;-51
2022/03/05 00:44:28;;;;;;;8.20;5.10;;;5.40;56.60;;;8.25;45.26;102340.00;5033678;28;20295;-54
2022/03/05 00:46:56;;;;;;;6.97;5.43;;;5.40;56.20;;;8.23;45.40;102338.47;5033923;28;20277;-52
2022/03/05 00:49:25;;;;;;;7.03;5.00;;;5.40;56.10;;;8.20;45.49;102337.75;5034271;28;20192;-53
2022/03/05 00:51:52;;;;;;;9.13;5.63;;;5.30;56.30;;;8.15;45.83;102339.91;5033944;28;20188;-51
2022/03/05 00:54:20;;;;;;;10.60;5.73;;;5.30;56.50;;;8.12;46.03;102337.53;5033622;28;20329;-56
2022/03/05 00:56:47;;;;;;;7.47;5.17;;;5.20;56.50;;;8.07;46.06;102347.53;5033687;28;20194;-52
2022/03/05 00:59:15;;;;;;;6.53;5.20;;;5.20;57.00;;;8.03;46.17;102359.19;5033717;28;20198;-56
2022/03/05 01:01:42;;;;;;;8.37;4.87;;;5.20;57.40;;;8.04;46.21;102350.38;5033736;28;20192;-54
2022/03/05 01:04:10;;;;;;;6.50;5.17;;;5.20;56.90;;;8.02;45.90;102360.16;5033076;28;20208;-56
2022/03/05 01:06:39;;;;;;;5.63;4.77;;;5.20;57.00;;;8.02;46.34;102354.09;5033567;28;20668;-54
2022/03/05 01:09:07;;;;;;;6.00;5.40;;;5.10;56.90;;;7.98;45.89;102350.88;5033423;28;20237;-55
2022/03/05 01:11:34;;;;;;;8.03;4.80;;;5.10;57.50;;;7.95;45.95;102358.97;5032971;28;20200;-54
2022/03/05 01:14:02;;;;;;;6.27;4.70;;;5.10;56.90;;;7.91;46.08;102352.31;5032900;28;20219;-54
2022/03/05 01:16:30;;;;;;;10.90;5.80;;;5.00;56.70;;;7.85;45.99;102352.75;5033396;28;20201;-54
2022/03/05 01:18:57;;;;;;;9.33;6.13;;;5.00;57.30;;;7.81;46.56;102360.97;5033359;28;20274;-52
2022/03/05 01:21:24;;;;;;;8.37;5.37;;;4.90;57.50;;;7.77;46.31;102359.53;5033137;28;20197;-53
2022/03/05 01:23:53;;;;;;;7.37;5.07;;;4.90;57.50;;;7.72;46.42;102359.88;5032889;28;20229;-55
2022/03/05 01:26:20;;;;;;;7.83;4.97;;;4.80;57.60;;;7.70;47.05;102361.75;5033081;28;20200;-53
2022/03/05 01:28:48;;;;;;;6.70;4.67;;;4.70;58.20;;;7.67;46.85;102359.41;5032248;28;20605;-57
2022/03/05 01:31:15;;;;;;;7.23;4.57;;;4.80;58.00;;;7.67;47.12;102356.78;5033273;28;20195;-55
2022/03/05 01:33:43;;;;;;;6.43;5.00;;;4.70;58.20;;;7.65;47.00;102350.81;5032473;28;20589;-57
2022/03/05 01:36:11;;;;;;;8.20;5.13;;;4.70;58.20;;;7.66;47.06;102362.13;5032866;28;20278;-53
2022/03/05 01:38:38;;;;;;;7.23;5.00;;;4.70;58.40;;;7.66;47.01;102352.47;5032557;28;20202;-55
2022/03/05 01:41:07;;;;;;;9.47;4.73;;;4.70;58.60;;;7.67;47.32;102354.16;5033621;28;20191;-53
2022/03/05 01:43:34;;;;;;;8.60;4.80;;;4.70;58.60;;;7.68;46.82;102365.47;5032661;28;20211;-56
2022/03/05 01:46:02;;;;;;;5.80;4.63;;;4.80;58.40;;;7.66;46.90;102356.88;5033200;28;20274;-54
2022/03/05 01:48:29;;;;;;;7.60;4.33;;;4.70;58.40;;;7.67;46.82;102356.78;5033099;28;20194;-53
2022/03/05 01:50:57;;;;;;;6.53;4.50;;;4.70;58.50;;;7.68;46.98;102349.75;5032901;28;20190;-54
2022/03/05 01:53:24;;;;;;;6.83;4.67;;;4.70;58.50;;;7.69;46.77;102356.66;5032367;28;20222;-55
2022/03/05 01:55:53;;;;;;;6.63;5.07;;;4.80;58.40;;;7.67;46.62;102348.91;5032886;28;20202;-53
2022/03/05 01:58:21;;;;;;;5.67;4.47;;;4.70;58.40;;;7.68;46.65;102353.19;5032720;28;20210;-56
2022/03/05 02:00:49;;;;;;;4.70;4.03;;;4.80;58.30;;;7.68;47.08;102350.56;5033157;28;20190;-57
2022/03/05 02:03:16;;;;;;;6.73;4.07;;;4.70;58.30;;;7.70;46.72;102348.66;5032506;28;20655;-56
2022/03/05 02:05:44;;;;;;;6.23;4.47;;;4.70;58.40;;;7.71;46.61;102345.09;5032969;28;20811;-56
2022/03/05 02:08:11;;;;;;;5.47;4.37;;;4.70;58.30;;;7.71;46.88;102339.88;5032709;28;20199;-52
2022/03/05 02:10:40;;;;;;;6.77;4.27;;;4.80;58.40;;;7.70;46.53;102346.03;5032727;28;20193;-54
2022/03/05 02:13:07;;;;;;;4.93;3.23;;;4.70;58.20;;;7.68;46.71;102340.09;5032463;28;20220;-53
2022/03/05 02:15:36;;;;;;;5.30;4.30;;;4.70;58.10;;;7.66;47.10;102342.00;5032591;28;20265;-54
2022/03/05 02:18:03;;;;;;;5.20;3.80;;;4.70;58.10;;;7.62;46.69;102342.34;5032643;28;20663;-54
2022/03/05 02:20:32;;;;;;;5.27;4.10;;;4.70;58.10;;;7.59;46.82;102340.78;5032570;28;20206;-56
2022/03/05 02:22:59;;;;;;;5.60;3.70;;;4.70;58.60;;;7.58;47.50;102338.28;5030724;28;20675;-55
2022/03/05 02:25:27;;;;;;;6.40;4.50;;;4.60;58.60;;;7.57;47.23;102336.63;5031815;28;20223;-55
2022/03/05 02:27:57;;;;;;;4.83;3.73;;;4.70;58.60;;;7.58;47.55;102338.28;5032951;28;20183;-56
2022/03/05 02:30:25;;;;;;;5.80;3.77;;;4.70;59.10;;;7.57;46.97;102340.06;5032762;28;20197;-52
2022/03/05 02:32:52;;;;;;;6.20;4.17;;;4.60;58.40;;;7.57;47.34;102326.13;5031788;28;20200;-56
2022/03/05 02:35:19;;;;;;;5.67;5.00;;;4.70;58.50;;;7.57;47.56;102328.75;5031465;28;20309;-52
2022/03/05 02:37:48;;;;;;;4.87;4.00;;;4.60;58.70;;;7.54;46.83;102324.56;5032818;28;20544;-55
2022/03/05 02:40:15;;;;;;;7.33;4.23;;;4.60;58.50;;;7.50;46.79;102320.53;5032760;28;20199;-53
2022/03/05 02:42:43;;;;;;;5.27;4.47;;;4.60;58.30;;;7.47;47.53;102328.59;5032350;28;20562;-56
2022/03/05 02:45:10;;;;;;;5.53;3.90;;;4.60;58.60;;;7.44;47.36;102327.06;5032511;28;20671;-52
2022/03/05 02:47:37;;;;;;;6.27;3.93;;;4.60;58.40;;;7.42;47.47;102328.13;5032422;28;20199;-54
2022/03/05 02:50:06;;;;;;;5.77;3.90;;;4.50;58.30;;;7.39;46.92;102333.59;5034362;28;20191;-56
2022/03/05 02:52:34;;;;;;;4.40;3.93;;;4.50;58.20;;;7.34;47.27;102326.09;5035797;28;20191;-53
2022/03/05 02:55:04;;;;;;;5.60;3.80;;;4.40;58.40;;;7.32;47.50;102329.78;5034450;28;20242;-53
2022/03/05 02:57:31;;;;;;;5.43;3.70;;;4.40;58.70;;;7.32;47.15;102335.81;5036097;28;20195;-54
2022/03/05 02:59:58;;;;;;;5.27;3.87;;;4.40;58.80;;;7.32;47.57;102327.16;5035988;28;20197;-57
2022/03/05 03:02:26;;;;;;;4.77;3.80;;;4.40;58.70;;;7.31;47.09;102334.19;5035986;28;20187;-52
2022/03/05 03:04:54;;;;;;;5.33;3.63;;;4.40;58.80;;;7.30;48.07;102329.88;5035921;28;20206;-56
2022/03/05 03:07:21;;;;;;;4.10;3.70;;;4.40;59.10;;;7.29;47.16;102322.97;5035713;28;20275;-54
2022/03/05 03:09:48;;;;;;;5.13;3.60;;;4.40;59.00;;;7.30;47.09;102323.78;5035690;28;20215;-55
2022/03/05 03:12:17;;;;;;;4.37;3.70;;;4.40;58.80;;;7.30;47.21;102319.41;5035797;28;20203;-56
2022/03/05 03:14:44;;;;;;;6.57;4.07;;;4.40;58.90;;;7.31;47.61;102328.09;5035351;28;20544;-53
2022/03/05 03:17:11;;;;;;;5.23;3.50;;;4.40;58.90;;;7.32;47.34;102327.16;5035842;28;20198;-56
2022/03/05 03:19:39;;;;;;;5.77;3.27;;;4.40;59.00;;;7.33;48.09;102323.56;5035477;28;20201;-56
2022/03/05 03:22:06;;;;;;;4.47;3.27;;;4.40;58.80;;;7.31;47.61;102325.47;5035410;28;20540;-52
2022/03/05 03:24:33;;;;;;;4.80;3.30;;;4.40;58.70;;;7.30;47.73;102334.25;5035022;28;20221;-55
2022/03/05 03:27:02;;;;;;;4.43;3.40;;;4.40;58.50;;;7.26;47.30;102335.44;5035816;28;20639;-54
2022/03/05 03:29:30;;;;;;;6.37;3.80;;;4.40;58.40;;;7.24;47.84;102332.13;5035810;28;20277;-51
2022/03/05 03:31:58;;;;;;;3.53;2.93;;;4.30;58.70;;;7.20;47.87;102328.06;5036079;28;20196;-52
2022/03/05 03:34:26;;;;;;;4.10;3.20;;;4.30;58.70;;;7.18;47.40;102324.72;5035395;28;20607;-52
2022/03/05 03:36:53;;;;;;;4.03;3.43;;;4.30;58.70;;;7.13;47.42;102327.66;5036198;28;20196;-53
2022/03/05 03:39:20;;;;;;;5.20;3.50;;;4.20;58.80;;;7.13;47.71;102324.22;5036210;28;20200;-51
2022/03/05 03:41:47;;;;;;;5.10;3.03;;;4.30;59.40;;;7.13;47.39;102326.84;5036027;28;20195;-52
2022/03/05 03:44:15;;;;;;;2.97;2.67;;;4.30;59.30;;;7.13;48.15;102332.09;5034978;28;20268;-52
2022/03/05 03:46:44;;;;;;;4.23;3.20;;;4.30;59.30;;;7.13;47.99;102334.69;5034573;28;20602;-51
2022/03/05 03:49:11;;;;;;;3.73;2.63;;;4.30;58.90;;;7.12;47.89;102333.03;5035559;28;20217;-54
2022/03/05 03:51:38;;;;;;;4.77;3.03;;;4.20;59.40;;;7.08;47.68;102329.81;5034033;28;20683;-52
2022/03/05 03:54:06;;;;;;;5.33;3.20;;;4.30;59.10;;;7.09;47.92;102333.22;5034657;28;20233;-53
2022/03/05 03:56:33;;;;;;;3.80;2.50;;;4.20;58.90;;;7.06;47.73;102333.47;5034921;28;20184;-52
2022/03/05 03:59:00;;;;;;;4.93;3.23;;;4.20;59.00;;;7.02;47.42;102330.25;5034687;28;20197;-54
2022/03/05 04:01:28;;;;;;;3.87;2.73;;;4.20;58.90;;;7.00;47.40;102336.53;5034236;28;20187;-53
2022/03/05 04:04:02;;;;;;;3.67;3.17;;;4.10;59.00;;;6.97;48.20;102336.75;5034860;28;20210;-51
2022/03/05 04:08:41;;;;;;;3.90;2.70;;;4.10;59.40;;;6.96;48.07;102340.34;5034931;28;20191;-52
2022/03/05 04:09:17;;;;;;;3.17;2.40;;;4.10;59.30;;;6.97;47.34;102344.59;5034773;28;20199;-54
2022/03/05 04:11:44;;;;;;;4.20;2.93;;;4.10;59.00;;;6.96;48.22;102348.19;5034650;28;20195;-52
2022/03/05 04:14:12;;;;;;;6.87;3.23;;;4.10;59.30;;;6.98;47.92;102348.91;5034092;28;20228;-55
2022/03/05 04:16:39;;;;;;;4.20;2.43;;;4.10;59.00;;;6.99;47.61;102345.34;5034833;28;20195;-53
2022/03/05 04:19:08;;;;;;;5.00;3.23;;;4.10;58.80;;;6.99;48.03;102353.19;5034473;28;20560;-55
2022/03/05 04:21:35;;;;;;;4.37;2.60;;;4.10;58.80;;;6.97;47.67;102349.84;5033140;28;20197;-55
2022/03/05 04:24:03;;;;;;;3.33;2.50;;;4.00;58.70;;;6.94;47.33;102350.88;5033924;28;20235;-53
2022/03/05 04:26:31;;;;;;;3.97;2.60;;;4.10;58.90;;;6.91;47.16;102343.28;5034437;28;20198;-55
2022/03/05 04:28:58;;;;;;;3.27;2.37;;;4.00;58.50;;;6.88;47.35;102340.88;5034276;28;20187;-56
2022/03/05 04:31:26;;;;;;;2.20;2.00;;;4.00;58.40;;;6.84;47.22;102336.81;5034065;28;20195;-57
2022/03/05 04:33:53;;;;;;;3.40;2.60;;;4.00;58.80;;;6.81;47.64;102340.50;5033704;28;20219;-53
2022/03/05 04:36:22;;;;;;;5.47;3.00;;;3.90;58.90;;;6.79;47.67;102337.16;5033999;28;20664;-54
2022/03/05 04:38:49;;;;;;;3.03;2.23;;;3.90;59.30;;;6.77;46.88;102343.44;5034191;28;20647;-57
2022/03/05 04:41:17;;;;;;;3.57;2.57;;;3.80;58.60;;;6.72;47.70;102333.31;5034259;28;20187;-53
2022/03/05 04:43:44;;;;;;;3.90;2.77;;;3.80;58.50;;;6.69;47.52;102337.91;5033615;28;20546;-55
2022/03/05 04:46:12;;;;;;;4.87;2.40;;;3.70;58.90;;;6.66;47.42;102333.72;5033835;28;20190;-52
2022/03/05 04:48:39;;;;;;;4.83;3.47;;;3.70;59.00;;;6.60;47.95;102328.97;5033973;28;20238;-56
2022/03/05 04:51:07;;;;;;;3.03;2.10;;;3.60;59.00;;;6.57;46.85;102328.31;5033714;28;20202;-54
2022/03/05 04:53:35;;;;;;;6.20;2.77;;;3.60;58.60;;;6.53;47.95;102332.97;5033210;28;20214;-56
2022/03/05 04:56:03;;;;;;;3.47;2.30;;;3.60;59.20;;;6.51;48.22;102334.81;5033817;28;20535;-55
2022/03/05 04:58:30;;;;;;;5.93;2.20;;;3.60;59.20;;;6.48;47.70;102345.53;5033592;28;20531;-53
2022/03/05 05:00:58;;;;;;;4.17;2.23;;;3.50;59.30;;;6.47;47.99;102343.00;5033735;28;20249;-55
2022/03/05 05:03:25;;;;;;;3.17;2.30;;;3.50;59.30;;;6.45;47.57;102340.50;5033073;28;20226;-55
2022/03/05 05:05:53;;;;;;;4.73;2.73;;;3.50;59.30;;;6.45;48.01;102345.72;5033838;28;20583;-54
2022/03/05 05:08:20;;;;;;;4.77;2.53;;;3.50;59.10;;;6.46;47.37;102342.19;5033436;28;20576;-54
2022/03/05 05:10:49;;;;;;;4.70;2.60;;;3.50;59.10;;;6.44;47.24;102336.19;5033355;28;20198;-54
2022/03/05 05:13:16;;;;;;;4.87;2.80;;;3.50;59.00;;;6.42;47.65;102343.31;5032222;28;20354;-55
2022/03/05 05:15:47;;;;;;;3.60;2.60;;;3.40;58.80;;;6.37;47.93;102342.81;5033280;28;20234;-55
2022/03/05 05:18:14;;;;;;;4.20;2.60;;;3.40;59.30;;;6.34;47.83;102345.66;5033292;28;20195;-55
2022/03/05 05:20:42;;;;;;;6.83;2.87;;;3.40;59.50;;;6.33;47.90;102343.97;5033473;28;20214;-54
2022/03/05 05:23:09;;;;;;;4.07;2.43;;;3.40;59.40;;;6.32;48.17;102344.94;5032812;28;20699;-51
2022/03/05 05:25:36;;;;;;;4.57;2.57;;;3.40;59.60;;;6.34;48.17;102348.28;5031794;28;20673;-56
2022/03/05 05:28:05;;;;;;;4.47;2.53;;;3.40;60.10;;;6.36;48.69;102362.06;5033054;28;20246;-56
2022/03/05 05:30:33;;;;;;;3.87;2.93;;;3.40;59.70;;;6.38;47.46;102354.94;5033333;28;20191;-51
2022/03/05 05:33:01;;;;;;;2.30;2.10;;;3.40;59.30;;;6.38;48.38;102365.41;5032811;28;20279;-53
2022/03/05 05:35:28;;;;;;;5.60;2.20;;;3.40;59.20;;;6.36;48.26;102356.84;5031841;28;20223;-52
2022/03/05 05:37:58;;;;;;;5.70;2.73;;;3.40;59.00;;;6.36;48.10;102356.00;5031832;28;20246;-54
2022/03/05 05:40:26;;;;;;;2.93;2.30;;;3.40;59.40;;;6.35;48.07;102365.63;5033135;28;20198;-55
2022/03/05 05:42:53;;;;;;;3.97;2.37;;;3.40;59.30;;;6.36;48.39;102364.69;5032956;28;20201;-51
2022/03/05 05:45:22;;;;;;;5.50;2.57;;;3.40;59.30;;;6.36;47.98;102356.84;5033196;28;20208;-54
2022/03/05 05:47:49;;;;;;;3.50;2.63;;;3.40;59.30;;;6.34;48.17;102357.88;5032975;28;20192;-52
2022/03/05 05:50:17;;;;;;;4.27;2.80;;;3.40;59.40;;;6.32;47.39;102360.63;5032868;28;20567;-56
2022/03/05 05:52:44;;;;;;;6.40;2.70;;;3.40;59.50;;;6.31;47.81;102363.31;5031451;28;20195;-53
2022/03/05 05:55:11;;;;;;;3.23;2.30;;;3.40;59.60;;;6.32;47.80;102362.38;5032783;28;20578;-52
2022/03/05 05:57:39;;;;;;;3.43;2.00;;;3.40;59.30;;;6.32;47.91;102365.00;5032881;28;20332;-56
2022/03/05 06:00:08;;;;;;;3.13;2.30;;;3.40;59.90;;;6.32;48.41;102360.63;5032797;28;20188;-55
2022/03/05 06:02:37;;;;;;;3.37;2.00;;;3.40;59.30;;;6.33;48.74;102357.03;5033310;28;20194;-52
2022/03/05 06:05:05;;;;;;;5.10;2.57;;;3.40;59.40;;;6.36;48.01;102367.28;5032967;28;20294;-52
2022/03/05 06:07:32;;;;;;;3.07;2.40;;;3.50;59.40;;;6.39;48.45;102366.25;5032630;28;20225;-53
2022/03/05 06:10:00;;;;;;;5.30;2.30;;;3.50;59.20;;;6.40;48.06;102373.13;5032982;28;20199;-55
2022/03/05 06:12:27;;;;;;;3.20;2.27;;;3.50;59.20;;;6.42;47.86;102376.50;5032320;28;20195;-54
2022/03/05 06:14:54;;;;;;;2.20;2.00;;;3.50;59.10;;;6.42;48.20;102369.47;5032652;28;20228;-52
2022/03/05 06:17:22;;;;;;;5.47;2.40;;;3.50;58.90;;;6.41;47.01;102378.28;5033207;28;20214;-53
2022/03/05 06:19:51;;;;;;;3.97;2.57;;;3.50;58.90;;;6.41;47.60;102378.28;5032895;28;20550;-54
2022/03/05 06:22:18;;;;;;;4.13;2.63;;;3.50;58.80;;;6.41;47.72;102383.50;5032644;28;20201;-55
2022/03/05 06:24:46;;;;;;;2.37;2.00;;;3.50;58.80;;;6.41;48.03;102386.13;5035533;28;20214;-53
2022/03/05 06:27:13;;;;;;;4.47;2.63;;;3.50;59.20;;;6.45;47.45;102386.72;5035360;28;20690;-55
2022/03/05 06:29:40;;;;;;;5.07;2.57;;;3.50;58.90;;;6.45;47.87;102382.34;5035127;28;20203;-52
2022/03/05 06:32:08;;;;;;;5.00;2.63;;;3.50;58.70;;;6.46;47.72;102384.03;5035887;28;20198;-53
2022/03/05 06:34:36;;;;;;;5.33;2.43;;;3.60;58.70;;;6.47;48.22;102388.28;5035772;28;20310;-56
2022/03/05 06:37:05;;;;;;;6.13;2.57;;;3.50;58.80;;;6.47;47.68;102390.91;5035135;28;20640;-56
2022/03/05 06:39:32;;;;;;;6.40;2.40;;;3.50;58.50;;;6.47;46.90;102388.28;5036409;28;20186;-53
2022/03/05 06:42:00;;;;;;;4.37;2.20;;;3.50;58.60;;;6.49;46.97;102389.00;5036235;28;20195;-53
2022/03/05 06:44:32;;;;;;;4.73;2.70;;;3.50;58.80;;;6.51;47.81;102387.13;5035980;28;20236;-55
2022/03/05 06:47:00;;;;;;;4.17;2.77;;;3.60;58.80;;;6.54;47.62;102391.31;5035952;28;20202;-54
2022/03/05 06:49:27;;;;;;;3.33;1.93;;;3.60;58.50;;;6.54;46.55;102394.75;5036169;28;20550;-52
2022/03/05 06:51:54;;;;;;;4.67;2.13;;;3.60;59.00;;;6.55;46.81;102393.84;5035987;28;20193;-54
2022/03/05 06:54:23;;;;;;;3.50;2.70;;;3.60;58.30;;;6.55;47.60;102387.75;5035152;28;20216;-52
2022/03/05 06:56:50;;;;;;;4.57;2.17;;;3.50;58.40;;;6.56;46.73;102394.69;5035631;28;20195;-52
2022/03/05 06:59:17;;;;;;;5.83;2.20;;;3.50;58.70;;;6.61;47.61;102396.00;5034312;28;20221;-51
2022/03/05 07:01:45;;;;;;;3.53;2.43;;;3.60;58.80;;;6.65;47.12;102397.47;5035666;28;20186;-55
2022/03/05 07:04:12;;;;;;;3.30;2.37;;;3.60;59.40;;;6.71;46.96;102398.81;5035169;28;20245;-54
2022/03/05 07:06:40;;;;;;;8.03;3.00;;;3.70;58.60;;;6.76;47.22;102402.78;5035798;28;20186;-54
2022/03/05 07:09:07;;;;;;;4.73;3.27;;;3.70;58.50;;;6.82;47.25;102401.53;5035745;28;20210;-52
2022/03/05 07:11:36;;;;;;;4.40;3.10;;;3.80;58.30;;;6.90;46.17;102401.78;5035644;28;20526;-56
2022/03/05 07:14:03;;;;;;;5.47;2.50;;;3.80;58.20;;;7.00;46.66;102399.34;5035929;28;20214;-54
2022/03/05 07:16:31;;;;;;;4.43;2.53;;;3.90;58.20;;;7.12;46.47;102404.53;5035032;28;20222;-54
2022/03/05 07:18:58;;;;;;;4.50;2.87;;;4.00;58.20;;;7.32;46.54;102403.09;5036982;28;20336;-55
2022/03/05 07:21:26;;;;;;;6.40;3.07;;;4.10;58.10;;;7.53;46.18;102404.13;5036022;28;20197;-56
2022/03/05 07:23:53;;;;;;;4.27;3.17;;;4.30;58.10;;;7.79;45.61;102405.66;5037831;28;20219;-54
2022/03/05 07:26:20;;;;;;;4.50;2.67;;;4.50;58.00;;;8.04;45.39;102410.69;5040362;28;20197;-56
2022/03/05 07:28:50;;;;;;;5.00;3.10;;;4.70;57.90;;;8.29;44.63;102407.06;5038802;28;20195;-56
2022/03/05 07:31:17;;;;;;;3.20;2.90;;;4.90;57.10;;;8.46;44.01;102403.13;5037285;28;20323;-56
2022/03/05 07:33:45;;;;;;;4.13;2.73;;;5.10;56.00;;;8.54;43.78;102411.22;5039058;28;20294;-56
2022/03/05 07:36:12;;;;;;;5.63;3.43;;;5.30;55.50;;;8.61;43.41;102415.03;5038326;28;20222;-56
2022/03/05 07:38:43;;;;;;;5.30;3.00;;;5.50;54.90;;;8.74;43.00;102405.25;5039366;28;20653;-52
2022/03/05 07:41:11;;;;;;;4.07;3.67;;;5.50;54.50;;;8.97;42.60;102413.91;5037949;28;20214;-54
2022/03/05 07:43:39;;;;;;;4.57;3.67;;;5.70;54.20;;;9.36;42.46;102413.34;5040733;28;20296;-55
2022/03/05 07:46:07;;;;;;;4.33;3.50;;;5.90;54.50;;;9.86;41.66;102417.88;5041180;28;20277;-58
2022/03/05 07:48:35;;;;;;;7.83;4.33;;;6.30;53.90;;;10.28;40.77;102408.19;5039981;28;20203;-55
2022/03/05 07:51:03;;;;;;;5.87;3.77;;;6.70;53.70;;;10.60;40.17;102416.75;5040376;28;20187;-55
2022/03/05 07:53:34;;;;;;;7.07;3.37;;;7.10;51.60;;;10.91;39.47;102416.72;5039636;28;20218;-54
2022/03/05 07:56:01;;;;;;;6.73;4.37;;;7.40;50.70;;;11.12;38.80;102422.72;5040229;28;20380;-55
2022/03/05 07:58:28;;;;;;;11.17;9.30;;;7.70;49.80;;;11.28;38.06;102409.84;5040247;28;20197;-55
2022/03/05 08:00:58;;;;;;;5.93;4.60;;;7.90;49.00;;;11.35;38.16;102411.78;5035416;28;20195;-55
2022/03/05 08:03:27;;;;;;;5.23;3.77;;;8.10;48.00;;;11.41;38.11;102415.69;5033063;28;20210;-55
2022/03/05 08:05:54;;;;;;;5.60;4.20;;;8.20;48.10;;;11.51;37.42;102416.50;5034515;28;20193;-52
2022/03/05 08:08:21;;;;;;;6.80;4.90;;;8.30;48.10;;;11.63;36.86;102417.19;5034165;28;20670;-52
2022/03/05 08:10:49;;;;;;;5.37;4.03;;;8.40;46.50;;;11.71;36.66;102415.56;5034205;28;20244;-54
2022/03/05 08:13:16;;;;;;;5.60;4.57;;;8.50;46.30;;;11.77;36.45;102412.34;5033802;28;20639;-55
2022/03/05 08:15:48;;;;;;;5.30;4.63;;;8.50;46.30;;;11.84;36.39;102420.56;5033968;28;20203;-54
2022/03/05 08:18:16;;;;;;;5.00;4.50;;;8.60;45.90;;;11.93;36.06;102417.88;5034191;28;20199;-54
2022/03/05 08:20:45;;;;;;;6.00;3.80;;;8.70;46.20;;;12.05;36.49;102423.84;5033983;28;20199;-55
2022/03/05 08:23:12;;;;;;;6.50;4.27;;;8.70;46.40;;;12.28;36.12;102417.25;5033847;28;20620;-56
2022/03/05 08:25:40;;;;;;;7.20;5.83;;;8.90;46.30;;;12.65;35.83;102414.56;5033920;28;20190;-56
2022/03/05 08:28:07;;;;;;;5.37;4.87;;;9.00;46.10;;;13.14;35.12;102419.47;5034597;28;20194;-55
2022/03/05 08:30:34;;;;;;;5.93;5.30;;;9.30;46.20;;;13.68;34.38;102417.63;5032625;28;20569;-53
2022/03/05 08:33:02;;;;;;;6.40;5.27;;;9.60;45.60;;;14.12;33.75;102424.59;5033475;28;20269;-55
2022/03/05 08:35:30;;;;;;;5.60;5.00;;;10.00;44.00;;;14.61;33.37;102421.25;5033973;28;20222;-54
2022/03/05 08:38:02;;;;;;;6.77;5.67;;;10.40;43.50;;;15.13;32.46;102415.75;5033690;28;20201;-56
2022/03/05 08:40:30;;;;;;;6.43;5.40;;;10.80;42.70;;;15.60;31.68;102414.19;5032566;28;20269;-53
2022/03/05 08:42:57;;;;;;;6.40;5.77;;;11.20;42.20;;;15.93;30.17;102421.13;5033193;28;20197;-54
2022/03/05 08:45:28;;;;;;;6.07;5.40;;;11.60;39.00;;;16.18;30.11;102414.81;5033128;28;20210;-54
2022/03/05 08:47:56;;;;;;;5.60;5.10;;;11.90;38.70;;;16.52;29.67;102411.88;5033248;28;20190;-55
2022/03/05 08:50:23;;;;;;;6.00;5.40;;;12.30;38.30;;;16.84;29.15;102405.59;5033641;28;20194;-51
2022/03/05 08:52:51;;;;;;;6.43;5.63;;;12.60;37.80;;;17.30;28.65;102407.31;5032802;28;20197;-55
2022/03/05 08:55:19;;;;;;;7.37;5.77;;;12.90;36.60;;;17.71;27.78;102409.69;5033269;28;20214;-52
2022/03/05 08:57:47;;;;;;;7.70;5.23;;;13.30;36.20;;;17.95;26.64;102406.75;5031538;28;20218;-56
2022/03/05 09:00:16;;;;;;;6.10;5.50;;;13.60;33.60;;;18.17;25.77;102416.53;5032945;28;20202;-53
2022/03/05 09:02:43;;;;;;;6.17;5.43;;;13.90;31.70;;;18.31;25.31;102405.06;5031296;28;20260;-55
2022/03/05 09:05:14;;;;;;;5.40;5.00;;;14.10;30.90;;;18.50;26.05;102407.19;5033409;28;20553;-57
2022/03/05 09:07:42;;;;;;;5.97;5.30;;;14.40;32.10;;;19.00;25.89;102402.84;5033256;28;20262;-56
2022/03/05 09:10:11;;;;;;;5.20;4.70;;;14.80;32.30;;;19.39;24.79;102408.66;5031864;28;20201;-60
2022/03/05 09:12:42;;;;;;;5.33;4.83;;;15.10;30.50;;;19.53;23.57;102413.09;5032220;28;20199;-56
2022/03/05 09:15:10;;;;;;;5.87;5.30;;;15.40;29.40;;;19.38;23.63;102401.63;5032849;28;20293;-55
2022/03/05 09:17:38;;;;;;;5.03;4.53;;;15.50;28.40;;;19.25;23.90;102409.50;5032721;28;20667;-53
2022/03/05 09:20:07;;;;;;;5.23;4.70;;;15.60;28.40;;;19.21;24.46;102408.22;5033072;28;20717;-58
2022/03/05 09:22:34;;;;;;;5.50;4.90;;;15.60;29.20;;;19.54;24.00;102404.03;5032635;28;20202;-57
2022/03/05 09:25:01;;;;;;;4.37;3.97;;;15.80;29.10;;;19.88;23.50;102403.28;5032882;28;20313;-53
2022/03/05 09:27:29;;;;;;;6.60;4.73;;;15.90;29.10;;;20.00;23.15;102407.91;5032870;28;20269;-56
2022/03/05 09:29:58;;;;;;;5.50;3.93;;;16.10;28.60;;;20.15;23.13;102400.63;5032847;28;20186;-56
2022/03/05 09:32:26;;;;;;;4.97;4.43;;;16.20;28.20;;;20.47;23.21;102392.97;5032648;28;20213;-56
2022/03/05 09:34:54;;;;;;;5.00;4.50;;;16.40;28.70;;;20.90;22.60;102397.88;5032667;28;20209;-55
2022/03/05 09:37:21;;;;;;;5.10;4.70;;;16.60;28.60;;;21.29;21.57;102409.75;5033065;28;20274;-54
2022/03/05 09:39:50;;;;;;;5.20;4.77;;;16.80;27.50;;;21.16;22.26;102394.47;5032693;28;20486;-56
2022/03/05 09:42:18;;;;;;;5.53;4.40;;;16.90;27.00;;;21.25;21.89;102393.25;5032556;28;20194;-53
2022/03/05 09:44:47;;;;;;;4.83;4.20;;;17.10;27.00;;;21.44;21.82;102402.34;5032588;28;20202;-55
2022/03/05 09:47:16;;;;;;;4.83;4.43;;;17.20;27.00;;;21.76;21.18;102401.53;5032453;28;20267;-54
2022/03/05 09:49:44;;;;;;;5.07;4.57;;;17.30;26.30;;;21.82;20.55;102399.88;5032698;28;20532;-56
2022/03/05 09:52:12;;;;;;;4.03;3.60;;;17.50;26.10;;;22.02;21.17;102416.78;5032317;28;20260;-52
2022/03/05 09:54:39;;;;;;;4.67;4.27;;;17.60;26.10;;;21.79;20.40;102411.00;5032299;28;20214;-56
2022/03/05 09:57:11;;;;;;;4.27;3.87;;;17.60;25.00;;;21.93;20.34;102405.47;5032861;28;20222;-56
2022/03/05 09:59:39;;;;;;;5.00;3.90;;;17.80;25.40;;;22.01;20.54;102405.22;5035274;28;20190;-56
2022/03/05 10:02:08;;;;;;;4.80;4.30;;;17.80;24.80;;;21.89;19.68;102408.78;5036767;28;20706;-55
2022/03/05 10:04:39;;;;;;;5.53;4.20;;;17.70;24.20;;;21.90;20.31;102408.56;5036142;28;20214;-55
2022/03/05 10:07:15;;;;;;;9.67;8.70;;;17.90;25.00;;;22.47;20.09;102412.34;5036703;28;20195;-53
2022/03/05 10:09:45;;;;;;;5.60;4.53;;;18.10;25.00;;;22.80;19.33;102411.19;5036454;28;20194;-55
2022/03/05 10:12:28;;;;;;;5.43;4.93;;;18.20;24.30;;;23.08;18.88;102401.97;5036557;28;20205;-54
2022/03/05 10:15:13;;;;;;;4.90;4.50;;;18.40;24.00;;;23.26;18.96;102394.00;5036345;28;20728;-56
2022/03/05 10:17:56;;;;;;;4.73;4.33;;;18.70;24.00;;;23.73;18.60;102396.13;5036141;28;20197;-55
2022/03/05 10:20:28;;;;;;;4.60;4.20;;;18.90;23.50;;;24.02;17.74;102391.91;5036477;28;20228;-55
2022/03/05 10:23:00;;;;;;;4.60;4.30;;;19.10;23.00;;;23.98;17.63;102383.47;5036214;28;20199;-54
2022/03/05 10:25:35;;;;;;;6.03;4.13;;;19.30;22.40;;;23.71;17.79;102387.44;5035959;28;20213;-54